Terminal Aerodrome Forecast
Issued by NWS

Home | Current Version | Previous Version | Graphics & Text | Print | Product List | Glossary On
Versions: 1 2 3 4 5 6 7 8 9 10 11 12 13 14 15 16 17 18 19 20 21 22
000
FTUS43 KUNR 232109 AAB
TAFGCC
TAF AMD
KGCC 232109Z 2321/2418 31012KT P6SM BKN040
     FM232300 34015G25KT P6SM -TSRA BKN030CB
     FM240300 30011KT 5SM -RA OVC006
     FM241600 30018G28KT 5SM -SHRA OVC012=

USA.gov is the U.S. government's official web portal to all federal, state and local government web resources and services.